Terminal Aerodrome Forecast
Issued by NWS Glasgow, MT

Current Version | Previous Version | Text Only | Print | Product List | Glossary On
Versions: 1 2 3 4 5 6 7 8 9 10 11 12
000
FTUS45 KGGW 261126
TAFGGW
TAF
KGGW 261126Z 2612/2712 VRB05KT P6SM SKC
     FM261800 28014KT P6SM SKC
     FM270400 31007KT P6SM SKC
     FM270700 35006KT P6SM SKC=

USA.gov is the U.S. government's official web portal to all federal, state and local government web resources and services.